createdAt,value
2017-11-08T00:00:25.386Z,6.97
2017-11-08T00:01:26.795Z,7.05
2017-11-08T00:02:28.203Z,7.07
2017-11-08T00:03:29.617Z,7.08
2017-11-08T00:04:31.035Z,6.97
2017-11-08T00:05:32.455Z,6.66
2017-11-08T00:06:33.880Z,6.77
2017-11-08T00:07:35.306Z,6.97
2017-11-08T00:08:36.718Z,6.81
2017-11-08T00:09:38.139Z,6.80
2017-11-08T00:10:39.558Z,6.68
2017-11-08T00:11:40.985Z,6.79
2017-11-08T00:12:42.389Z,6.58
2017-11-08T00:13:43.798Z,6.53
2017-11-08T00:14:45.219Z,6.58
2017-11-08T00:15:46.635Z,6.43
2017-11-08T00:16:48.052Z,6.51
2017-11-08T00:17:49.463Z,6.62
2017-11-08T00:18:50.884Z,6.71
2017-11-08T00:19:52.299Z,6.90
2017-11-08T00:20:53.712Z,7.17
2017-11-08T00:21:55.132Z,7.34
2017-11-08T00:22:56.556Z,7.31
2017-11-08T00:23:57.970Z,7.40
2017-11-08T00:24:59.384Z,7.35
2017-11-08T00:26:00.805Z,7.22
2017-11-08T00:27:02.224Z,6.83
2017-11-08T00:28:03.648Z,6.68
2017-11-08T00:29:05.062Z,6.63
2017-11-08T00:30:06.475Z,6.58
2017-11-08T00:31:07.901Z,6.66
2017-11-08T00:32:09.315Z,6.61
2017-11-08T00:33:10.732Z,6.54
2017-11-08T00:34:12.153Z,6.54
2017-11-08T00:35:13.565Z,6.56
2017-11-08T00:36:14.980Z,6.73
2017-11-08T00:37:16.384Z,6.80
2017-11-08T00:38:17.804Z,6.83
2017-11-08T00:39:19.223Z,6.81
2017-11-08T00:40:20.637Z,6.84
2017-11-08T00:41:22.052Z,6.79
2017-11-08T00:42:23.462Z,6.66
2017-11-08T00:43:24.874Z,6.62
2017-11-08T00:44:26.293Z,6.73
2017-11-08T00:45:27.709Z,7.05
2017-11-08T00:46:29.138Z,7.07
2017-11-08T00:47:30.548Z,7.24
2017-11-08T00:48:31.962Z,7.34
2017-11-08T00:49:33.384Z,7.42
2017-11-08T00:50:34.788Z,7.34
2017-11-08T00:51:36.204Z,7.40
2017-11-08T00:52:37.606Z,7.49
2017-11-08T00:53:39.027Z,7.59
2017-11-08T00:54:40.433Z,7.67
2017-11-08T00:55:41.847Z,7.72
2017-11-08T00:56:43.265Z,7.69
2017-11-08T00:57:44.689Z,7.59
2017-11-08T00:58:46.094Z,7.62
2017-11-08T00:59:47.517Z,7.29
2017-11-08T01:00:48.929Z,7.35
2017-11-08T01:01:50.338Z,7.40
2017-11-08T01:02:51.755Z,7.62
2017-11-08T01:03:53.169Z,7.75
2017-11-08T01:04:54.582Z,7.81
2017-11-08T01:05:55.992Z,7.96
2017-11-08T01:06:57.404Z,7.96
2017-11-08T01:07:58.827Z,7.78
2017-11-08T01:09:00.240Z,7.59
2017-11-08T01:10:01.666Z,7.38
2017-11-08T01:11:03.086Z,7.22
2017-11-08T01:12:04.501Z,7.19
2017-11-08T01:13:05.916Z,7.07
2017-11-08T01:14:07.337Z,7.04
2017-11-08T01:15:08.758Z,7.09
2017-11-08T01:16:10.170Z,7.17
2017-11-08T01:17:11.578Z,7.07
2017-11-08T01:18:12.998Z,7.08
2017-11-08T01:19:14.422Z,7.16
2017-11-08T01:20:15.844Z,7.08
2017-11-08T01:21:17.255Z,7.05
2017-11-08T01:22:18.677Z,7.08
2017-11-08T01:23:20.084Z,7.08
2017-11-08T01:24:21.489Z,7.08
2017-11-08T01:25:22.904Z,7.22
2017-11-08T01:26:24.327Z,7.16
2017-11-08T01:27:25.757Z,7.19
2017-11-08T01:28:27.172Z,7.12
2017-11-08T01:29:28.580Z,7.22
2017-11-08T01:30:29.989Z,7.04
2017-11-08T01:31:31.400Z,7.08
2017-11-08T01:32:32.810Z,7.19
2017-11-08T01:33:34.223Z,7.44
2017-11-08T01:34:35.634Z,7.63
2017-11-08T01:35:37.057Z,7.74
2017-11-08T01:36:38.466Z,7.85
2017-11-08T01:37:39.889Z,7.87
2017-11-08T01:38:41.296Z,7.72
2017-11-08T01:39:42.720Z,7.50
2017-11-08T01:40:44.132Z,7.23
2017-11-08T01:41:45.546Z,7.29
2017-11-08T01:42:46.959Z,7.19
2017-11-08T01:43:48.381Z,7.22
2017-11-08T01:44:49.792Z,7.45
2017-11-08T01:45:51.205Z,7.47
2017-11-08T01:46:52.721Z,7.45
2017-11-08T01:47:54.130Z,7.78
2017-11-08T01:48:55.546Z,7.84
2017-11-08T01:49:56.971Z,7.60
2017-11-08T01:50:58.383Z,7.37
2017-11-08T01:51:59.787Z,7.38
2017-11-08T01:53:01.204Z,7.22
2017-11-08T01:54:02.724Z,7.32
2017-11-08T01:55:04.142Z,7.34
2017-11-08T01:56:05.555Z,7.17
2017-11-08T01:57:06.983Z,7.24
2017-11-08T01:58:08.396Z,7.24
2017-11-08T01:59:09.806Z,7.16
2017-11-08T02:00:11.221Z,7.24
2017-11-08T02:01:12.634Z,7.32
2017-11-08T02:02:14.047Z,7.29
2017-11-08T02:03:15.463Z,7.22
2017-11-08T02:04:16.871Z,7.23
2017-11-08T02:05:18.280Z,7.29
2017-11-08T02:06:19.732Z,7.32
2017-11-08T02:07:21.149Z,7.45
2017-11-08T02:08:22.572Z,7.23
2017-11-08T02:09:23.997Z,7.29
2017-11-08T02:10:25.424Z,7.22
2017-11-08T02:11:26.842Z,7.24
2017-11-08T02:12:28.255Z,7.15
2017-11-08T02:13:29.671Z,7.22
2017-11-08T02:14:31.089Z,7.35
2017-11-08T02:15:32.505Z,7.49
2017-11-08T02:16:33.918Z,7.59
2017-11-08T02:17:35.332Z,7.77
2017-11-08T02:18:36.749Z,7.77
2017-11-08T02:19:38.260Z,7.74
2017-11-08T02:20:39.682Z,7.87
2017-11-08T02:21:41.096Z,7.99
2017-11-08T02:22:42.510Z,8.00
2017-11-08T02:23:43.920Z,8.08
2017-11-08T02:24:45.332Z,8.17
2017-11-08T02:25:46.745Z,8.03
2017-11-08T02:26:48.167Z,8.18
2017-11-08T02:27:49.692Z,8.17
2017-11-08T02:28:51.114Z,8.03
2017-11-08T02:29:52.532Z,8.10
2017-11-08T02:30:53.942Z,8.18
2017-11-08T02:31:55.356Z,8.30
2017-11-08T02:32:56.768Z,8.25
2017-11-08T02:33:58.186Z,8.33
2017-11-08T02:34:59.604Z,8.35
2017-11-08T02:36:01.022Z,8.33
2017-11-08T02:37:02.434Z,8.20
2017-11-08T02:38:03.838Z,8.25
2017-11-08T02:39:05.255Z,8.12
2017-11-08T02:40:06.672Z,8.20
2017-11-08T02:41:08.085Z,8.18
2017-11-08T02:42:09.499Z,8.07
2017-11-08T02:43:10.918Z,8.15
2017-11-08T02:44:12.334Z,8.22
2017-11-08T02:45:13.749Z,8.28
2017-11-08T02:46:15.164Z,8.36
2017-11-08T02:47:16.578Z,8.39
2017-11-08T02:48:17.998Z,8.35
2017-11-08T02:49:19.412Z,8.40
2017-11-08T02:50:20.793Z,8.42
2017-11-08T02:51:22.218Z,8.39
2017-11-08T02:52:23.632Z,8.48
2017-11-08T02:53:25.048Z,8.40
2017-11-08T02:54:26.460Z,8.12
2017-11-08T02:55:27.884Z,7.87
2017-11-08T02:56:29.293Z,7.79
2017-11-08T02:57:30.768Z,7.78
2017-11-08T02:58:32.182Z,7.75
2017-11-08T02:59:33.595Z,7.81
2017-11-08T03:00:35.012Z,7.90
2017-11-08T03:01:36.421Z,8.04
2017-11-08T03:02:37.832Z,8.25
2017-11-08T03:03:39.251Z,8.29
2017-11-08T03:04:40.665Z,8.36
2017-11-08T03:05:42.082Z,8.50
2017-11-08T03:06:43.496Z,8.50
2017-11-08T03:07:44.914Z,8.54
2017-11-08T03:08:46.341Z,8.69
2017-11-08T03:09:47.750Z,8.68
2017-11-08T03:10:49.159Z,8.63
2017-11-08T03:11:50.573Z,8.42
2017-11-08T03:12:51.983Z,8.37
2017-11-08T03:13:53.395Z,8.44
2017-11-08T03:14:54.803Z,8.44
2017-11-08T03:15:56.225Z,8.33
2017-11-08T03:16:57.729Z,8.36
2017-11-08T03:17:59.152Z,8.39
2017-11-08T03:19:00.560Z,8.25
2017-11-08T03:20:01.984Z,8.02
2017-11-08T03:21:03.390Z,7.94
2017-11-08T03:22:04.803Z,7.84
2017-11-08T03:23:06.217Z,7.74
2017-11-08T03:24:07.636Z,7.77
2017-11-08T03:25:09.052Z,7.59
2017-11-08T03:26:10.423Z,7.60
2017-11-08T03:27:11.838Z,7.56
2017-11-08T03:28:13.254Z,7.44
2017-11-08T03:29:14.678Z,7.47
2017-11-08T03:30:16.095Z,7.49
2017-11-08T03:31:17.514Z,7.41
2017-11-08T03:32:18.937Z,7.71
2017-11-08T03:33:20.350Z,7.99
2017-11-08T03:34:21.765Z,8.18
2017-11-08T03:35:23.187Z,8.21
2017-11-08T03:36:24.594Z,8.18
2017-11-08T03:37:26.005Z,8.42
2017-11-08T03:38:27.424Z,8.50
2017-11-08T03:39:28.837Z,8.44
2017-11-08T03:40:30.262Z,8.45
2017-11-08T03:41:31.674Z,8.03
2017-11-08T03:42:33.096Z,7.71
2017-11-08T03:43:34.507Z,7.78
2017-11-08T03:44:35.920Z,7.75
2017-11-08T03:45:37.335Z,7.71
2017-11-08T03:46:38.748Z,7.79
2017-11-08T03:47:40.239Z,7.85
2017-11-08T03:48:41.652Z,7.94
2017-11-08T03:49:43.080Z,8.21
2017-11-08T03:50:44.496Z,8.22
2017-11-08T03:51:45.905Z,8.20
2017-11-08T03:52:47.332Z,8.07
2017-11-08T03:53:48.746Z,7.87
2017-11-08T03:54:50.286Z,7.87
2017-11-08T03:55:51.708Z,7.82
2017-11-08T03:56:53.125Z,7.85
2017-11-08T03:57:54.534Z,8.02
2017-11-08T03:58:55.945Z,7.97
2017-11-08T03:59:57.360Z,8.10
2017-11-08T04:00:58.734Z,8.30
2017-11-08T04:02:00.153Z,8.35
2017-11-08T04:03:01.574Z,8.57
2017-11-08T04:04:02.993Z,8.47
2017-11-08T04:05:04.403Z,8.39
2017-11-08T04:06:05.823Z,8.33
2017-11-08T04:07:07.327Z,8.12
2017-11-08T04:08:08.744Z,8.02
2017-11-08T04:09:10.163Z,7.85
2017-11-08T04:10:11.578Z,7.72
2017-11-08T04:11:12.999Z,8.04
2017-11-08T04:12:14.416Z,8.22
2017-11-08T04:13:15.834Z,8.35
2017-11-08T04:14:17.250Z,8.48
2017-11-08T04:15:18.664Z,8.55
2017-11-08T04:16:20.043Z,8.62
2017-11-08T04:17:21.453Z,8.60
2017-11-08T04:18:22.868Z,8.69
2017-11-08T04:19:24.287Z,8.63
2017-11-08T04:20:25.816Z,8.57
2017-11-08T04:21:27.235Z,8.39
2017-11-08T04:22:28.651Z,8.20
2017-11-08T04:23:30.128Z,8.20
2017-11-08T04:24:31.561Z,8.35
2017-11-08T04:25:32.987Z,8.73
2017-11-08T04:26:34.398Z,8.73
2017-11-08T04:27:35.821Z,8.63
2017-11-08T04:28:37.232Z,8.53
2017-11-08T04:29:38.656Z,8.45
2017-11-08T04:30:40.076Z,8.54
2017-11-08T04:31:41.493Z,8.71
2017-11-08T04:32:42.901Z,8.79
2017-11-08T04:33:44.313Z,8.44
2017-11-08T04:34:45.692Z,8.47
2017-11-08T04:35:47.108Z,8.47
2017-11-08T04:36:48.526Z,8.58
2017-11-08T04:37:49.942Z,8.68
2017-11-08T04:38:51.356Z,8.65
2017-11-08T04:39:52.864Z,9.02
2017-11-08T04:40:54.277Z,9.10
2017-11-08T04:41:55.723Z,8.96
2017-11-08T04:42:57.114Z,9.06
2017-11-08T04:43:58.525Z,9.12
2017-11-08T04:44:59.934Z,9.15
2017-11-08T04:46:01.358Z,9.13
2017-11-08T04:47:02.778Z,8.94
2017-11-08T04:48:04.198Z,8.87
2017-11-08T04:49:05.615Z,8.72
2017-11-08T04:50:07.037Z,8.86
2017-11-08T04:51:08.462Z,8.72
2017-11-08T04:52:09.872Z,8.72
2017-11-08T04:53:11.289Z,8.62
2017-11-08T04:54:12.705Z,8.75
2017-11-08T04:55:14.137Z,8.79
2017-11-08T04:56:15.546Z,8.75
2017-11-08T04:57:16.962Z,8.62
2017-11-08T04:58:18.378Z,8.75
2017-11-08T04:59:19.801Z,8.69
2017-11-08T05:00:21.212Z,8.76
2017-11-08T05:01:22.620Z,8.66
2017-11-08T05:02:24.050Z,8.73
2017-11-08T05:03:25.462Z,8.79
2017-11-08T05:04:26.886Z,8.73
2017-11-08T05:05:28.377Z,8.72
2017-11-08T05:06:29.794Z,8.76
2017-11-08T05:07:31.207Z,8.63
2017-11-08T05:08:33.974Z,8.65
2017-11-08T05:09:35.393Z,8.58
2017-11-08T05:10:36.808Z,8.68
2017-11-08T05:11:38.225Z,8.62
2017-11-08T05:12:39.643Z,8.71
2017-11-08T05:13:41.073Z,8.71
2017-11-08T05:14:42.483Z,8.69
2017-11-08T05:15:43.896Z,8.72
2017-11-08T05:16:45.309Z,8.73
2017-11-08T05:17:46.725Z,8.57
2017-11-08T05:18:48.136Z,8.66
2017-11-08T05:19:49.556Z,8.69
2017-11-08T05:20:50.975Z,8.73
2017-11-08T05:21:52.391Z,8.90
2017-11-08T05:22:53.814Z,8.83
2017-11-08T05:23:55.222Z,8.75
2017-11-08T05:24:56.642Z,8.62
2017-11-08T05:25:58.053Z,8.73
2017-11-08T05:26:59.476Z,8.71
2017-11-08T05:28:00.892Z,8.72
2017-11-08T05:29:02.308Z,8.69
2017-11-08T05:30:03.715Z,8.72
2017-11-08T05:31:05.140Z,8.72
2017-11-08T05:32:06.555Z,8.78
2017-11-08T05:33:07.971Z,8.75
2017-11-08T05:34:09.387Z,8.68
2017-11-08T05:35:10.808Z,8.63
2017-11-08T05:36:12.224Z,8.54
2017-11-08T05:37:13.641Z,8.54
2017-11-08T05:38:15.062Z,8.50
2017-11-08T05:39:16.486Z,8.58
2017-11-08T05:40:17.911Z,8.60
2017-11-08T05:41:19.325Z,8.58
2017-11-08T05:42:20.747Z,8.65
2017-11-08T05:43:22.165Z,8.62
2017-11-08T05:44:23.574Z,8.66
2017-11-08T05:45:24.987Z,8.72
2017-11-08T05:46:26.403Z,8.66
2017-11-08T05:47:27.814Z,8.76
2017-11-08T05:48:29.226Z,8.79
2017-11-08T05:49:30.644Z,8.72
2017-11-08T05:50:32.052Z,8.88
2017-11-08T05:51:33.479Z,8.83
2017-11-08T05:52:34.888Z,8.76
2017-11-08T05:53:36.296Z,8.78
2017-11-08T05:54:37.704Z,8.83
2017-11-08T05:55:39.118Z,8.76
2017-11-08T05:56:40.531Z,8.91
2017-11-08T05:57:41.942Z,8.83
2017-11-08T05:58:43.352Z,8.90
2017-11-08T05:59:44.764Z,8.96
2017-11-08T06:00:46.172Z,8.91
2017-11-08T06:01:47.583Z,8.87
2017-11-08T06:02:48.992Z,8.66
2017-11-08T06:03:50.403Z,8.58
2017-11-08T06:04:51.816Z,8.55
2017-11-08T06:05:53.227Z,8.53
2017-11-08T06:06:54.649Z,8.51
2017-11-08T06:07:56.063Z,8.47
2017-11-08T06:08:57.474Z,8.51
2017-11-08T06:09:58.899Z,8.57
2017-11-08T06:11:00.305Z,8.47
2017-11-08T06:12:01.724Z,8.54
2017-11-08T06:13:03.142Z,8.51
2017-11-08T06:14:04.556Z,8.58
2017-11-08T06:15:05.976Z,8.63
2017-11-08T06:16:07.390Z,8.75
2017-11-08T06:17:08.799Z,8.86
2017-11-08T06:18:10.218Z,8.91
2017-11-08T06:19:11.647Z,8.81
2017-11-08T06:20:13.065Z,8.96
2017-11-08T06:21:14.485Z,8.81
2017-11-08T06:22:15.900Z,8.93
2017-11-08T06:23:17.318Z,8.93
2017-11-08T06:24:18.730Z,8.84
2017-11-08T06:25:20.149Z,8.93
2017-11-08T06:26:21.522Z,8.94
2017-11-08T06:27:22.940Z,8.78
2017-11-08T06:28:24.366Z,8.54
2017-11-08T06:29:25.773Z,8.57
2017-11-08T06:30:27.183Z,8.65
2017-11-08T06:31:28.618Z,8.47
2017-11-08T06:32:30.030Z,8.57
2017-11-08T06:33:31.442Z,8.76
2017-11-08T06:34:32.864Z,8.54
2017-11-08T06:35:34.275Z,8.48
2017-11-08T06:36:35.686Z,8.30
2017-11-08T06:37:37.106Z,8.53
2017-11-08T06:38:38.526Z,8.57
2017-11-08T06:39:39.945Z,8.39
2017-11-08T06:40:41.357Z,8.44
2017-11-08T06:41:42.772Z,8.35
2017-11-08T06:42:44.184Z,8.54
2017-11-08T06:43:45.604Z,8.69
2017-11-08T06:44:47.027Z,8.78
2017-11-08T06:45:48.442Z,8.84
2017-11-08T06:46:49.854Z,9.01
2017-11-08T06:47:51.271Z,8.99
2017-11-08T06:48:52.691Z,9.01
2017-11-08T06:49:54.105Z,8.96
2017-11-08T06:50:55.516Z,9.09
2017-11-08T06:51:56.938Z,9.02
2017-11-08T06:52:58.351Z,8.91
2017-11-08T06:53:59.767Z,8.81
2017-11-08T06:55:01.197Z,8.81
2017-11-08T06:56:02.610Z,8.96
2017-11-08T06:57:04.026Z,9.12
2017-11-08T06:58:05.440Z,9.18
2017-11-08T06:59:06.848Z,9.10
2017-11-08T07:00:08.270Z,9.04
2017-11-08T07:01:09.683Z,9.18
2017-11-08T07:02:11.082Z,9.04
2017-11-08T07:03:12.497Z,9.20
2017-11-08T07:04:13.904Z,9.30
2017-11-08T07:05:15.321Z,9.35
2017-11-08T07:06:16.737Z,9.34
2017-11-08T07:07:18.112Z,9.42
2017-11-08T07:08:19.483Z,9.43
2017-11-08T07:09:20.868Z,9.35
2017-11-08T07:10:22.284Z,9.32
2017-11-08T07:11:23.695Z,9.35
2017-11-08T07:12:25.108Z,9.34
2017-11-08T07:13:26.482Z,9.23
2017-11-08T07:14:27.904Z,9.10
2017-11-08T07:15:29.310Z,9.15
2017-11-08T07:16:30.727Z,9.20
2017-11-08T07:17:32.130Z,9.21
2017-11-08T07:18:33.545Z,9.10
2017-11-08T07:19:34.973Z,9.16
2017-11-08T07:20:36.392Z,9.15
2017-11-08T07:21:37.808Z,9.18
2017-11-08T07:22:39.221Z,9.25
2017-11-08T07:23:40.661Z,9.30
2017-11-08T07:24:42.074Z,9.28
2017-11-08T07:25:43.502Z,9.25
2017-11-08T07:26:44.924Z,9.30
2017-11-08T07:27:46.337Z,9.31
2017-11-08T07:28:47.763Z,9.42
2017-11-08T07:29:49.178Z,9.40
2017-11-08T07:30:50.596Z,9.23
2017-11-08T07:31:52.005Z,9.39
2017-11-08T07:32:53.417Z,9.43
2017-11-08T07:33:54.842Z,9.32
2017-11-08T07:34:56.247Z,9.27
2017-11-08T07:35:57.753Z,9.39
2017-11-08T07:36:59.169Z,9.23
2017-11-08T07:38:00.585Z,9.28
2017-11-08T07:39:02.005Z,9.21
2017-11-08T07:40:03.433Z,9.09
2017-11-08T07:41:04.851Z,9.25
2017-11-08T07:42:06.269Z,9.25
2017-11-08T07:43:07.688Z,9.27
2017-11-08T07:44:09.111Z,9.34
2017-11-08T07:45:10.522Z,9.20
2017-11-08T07:46:11.937Z,9.25
2017-11-08T07:47:13.353Z,9.40
2017-11-08T07:48:14.769Z,9.30
2017-11-08T07:49:16.192Z,9.32
2017-11-08T07:50:17.617Z,9.35
2017-11-08T07:51:19.040Z,9.39
2017-11-08T07:52:20.456Z,9.42
2017-11-08T07:53:21.869Z,9.40
2017-11-08T07:54:23.285Z,9.21
2017-11-08T07:55:24.703Z,9.21
2017-11-08T07:56:26.115Z,9.30
2017-11-08T07:57:27.551Z,9.28
2017-11-08T07:58:28.970Z,9.23
2017-11-08T07:59:30.389Z,9.30
2017-11-08T08:00:31.808Z,9.30
2017-11-08T08:01:33.216Z,9.31
2017-11-08T08:02:34.638Z,9.21
2017-11-08T08:03:36.060Z,9.30
2017-11-08T08:04:37.486Z,9.24
2017-11-08T08:05:38.901Z,9.24
2017-11-08T08:06:40.315Z,9.31
2017-11-08T08:07:41.726Z,9.30
2017-11-08T08:08:43.145Z,9.20
2017-11-08T08:09:46.054Z,9.35
2017-11-08T08:10:47.590Z,9.38
2017-11-08T08:11:48.997Z,9.30
2017-11-08T08:12:50.375Z,9.39
2017-11-08T08:13:51.795Z,9.38
2017-11-08T08:14:53.216Z,9.39
2017-11-08T08:15:54.643Z,9.45
2017-11-08T08:16:56.060Z,9.39
2017-11-08T08:17:57.473Z,9.43
2017-11-08T08:18:58.890Z,9.45
2017-11-08T08:20:00.311Z,9.49
2017-11-08T08:21:01.743Z,9.38
2017-11-08T08:22:03.164Z,9.40
2017-11-08T08:23:04.578Z,9.34
2017-11-08T08:24:06.006Z,9.49
2017-11-08T08:25:07.423Z,9.43
2017-11-08T08:26:08.835Z,9.45
2017-11-08T08:27:10.254Z,9.49
2017-11-08T08:28:11.675Z,9.60
2017-11-08T08:29:13.096Z,9.53
2017-11-08T08:30:14.513Z,9.49
2017-11-08T08:31:15.935Z,9.49
2017-11-08T08:32:17.354Z,9.52
2017-11-08T08:33:18.773Z,9.68
2017-11-08T08:34:20.189Z,9.61
2017-11-08T08:35:21.606Z,9.75
2017-11-08T08:36:23.026Z,9.78
2017-11-08T08:37:24.444Z,9.75
2017-11-08T08:38:25.866Z,9.53
2017-11-08T08:39:27.283Z,9.60
2017-11-08T08:40:28.713Z,9.66
2017-11-08T08:41:30.129Z,9.61
2017-11-08T08:42:31.540Z,9.60
2017-11-08T08:43:32.953Z,9.66
2017-11-08T08:44:34.367Z,9.67
2017-11-08T08:45:35.788Z,9.66
2017-11-08T08:46:37.198Z,9.79
2017-11-08T08:47:38.618Z,9.73
2017-11-08T08:48:40.037Z,9.73
2017-11-08T08:49:41.523Z,9.76
2017-11-08T08:50:42.942Z,9.86
2017-11-08T08:51:44.353Z,9.81
2017-11-08T08:52:45.786Z,9.93
2017-11-08T08:53:47.203Z,9.85
2017-11-08T08:54:48.623Z,9.82
2017-11-08T08:55:50.045Z,9.79
2017-11-08T08:56:51.548Z,9.97
2017-11-08T08:57:52.960Z,9.97
2017-11-08T08:58:54.373Z,9.82
2017-11-08T08:59:55.790Z,9.73
2017-11-08T09:00:57.203Z,9.67
2017-11-08T09:01:58.632Z,9.60
2017-11-08T09:03:00.047Z,9.52
2017-11-08T09:04:01.469Z,9.52
2017-11-08T09:05:02.900Z,9.53
2017-11-08T09:06:04.307Z,9.53
2017-11-08T09:07:05.720Z,9.53
2017-11-08T09:08:07.135Z,9.57
2017-11-08T09:09:09.500Z,9.43
2017-11-08T09:10:10.937Z,9.50
2017-11-08T09:11:12.349Z,9.49
2017-11-08T09:12:13.767Z,9.52
2017-11-08T09:13:15.274Z,9.57
2017-11-08T09:14:16.687Z,9.60
2017-11-08T09:15:18.101Z,9.49
2017-11-08T09:16:19.530Z,9.53
2017-11-08T09:17:20.948Z,9.58
2017-11-08T09:18:22.356Z,9.70
2017-11-08T09:19:23.775Z,9.67
2017-11-08T09:20:25.189Z,9.67
2017-11-08T09:21:26.605Z,9.61
2017-11-08T09:22:28.024Z,9.67
2017-11-08T09:23:29.437Z,9.63
2017-11-08T09:24:30.852Z,9.68
2017-11-08T09:25:32.266Z,9.76
2017-11-08T09:26:33.692Z,9.76
2017-11-08T09:27:35.123Z,9.71
2017-11-08T09:28:36.546Z,9.73
2017-11-08T09:29:37.957Z,9.63
2017-11-08T09:30:39.376Z,9.52
2017-11-08T09:31:40.792Z,9.53
2017-11-08T09:32:42.211Z,9.50
2017-11-08T09:33:43.629Z,9.60
2017-11-08T09:34:45.056Z,9.57
2017-11-08T09:35:46.476Z,9.61
2017-11-08T09:36:47.890Z,9.68
2017-11-08T09:37:49.307Z,9.63
2017-11-08T09:38:50.717Z,9.50
2017-11-08T09:39:52.142Z,9.53
2017-11-08T09:40:53.568Z,9.57
2017-11-08T09:41:54.982Z,9.66
2017-11-08T09:42:56.395Z,9.58
2017-11-08T09:43:57.815Z,9.52
2017-11-08T09:44:59.228Z,9.71
2017-11-08T09:46:00.643Z,9.78
2017-11-08T09:47:02.058Z,9.86
2017-11-08T09:48:03.476Z,9.89
2017-11-08T09:49:04.895Z,9.97
2017-11-08T09:50:06.318Z,9.88
2017-11-08T09:51:07.725Z,9.88
2017-11-08T09:52:09.171Z,9.78
2017-11-08T09:53:10.562Z,9.89
2017-11-08T09:54:11.965Z,9.93
2017-11-08T09:55:13.387Z,9.93
2017-11-08T09:56:15.495Z,10.00
2017-11-08T09:57:16.931Z,9.97
2017-11-08T09:58:18.429Z,9.93
2017-11-08T09:59:19.845Z,9.96
2017-11-08T10:00:21.272Z,9.82
2017-11-08T10:01:22.693Z,9.76
2017-11-08T10:02:24.105Z,9.82
2017-11-08T10:03:25.520Z,9.82
2017-11-08T10:04:26.943Z,9.97
2017-11-08T10:05:28.483Z,10.01
2017-11-08T10:06:29.944Z,9.97
2017-11-08T10:07:31.329Z,9.88
2017-11-08T10:08:32.758Z,9.96
2017-11-08T10:09:34.260Z,10.04
2017-11-08T10:10:35.604Z,10.17
2017-11-08T10:11:37.054Z,10.04
2017-11-08T10:12:38.501Z,9.91
2017-11-08T10:13:39.921Z,9.91
2017-11-08T10:14:41.358Z,9.97
2017-11-08T10:15:42.752Z,10.12
2017-11-08T10:16:44.172Z,9.99
2017-11-08T10:17:45.595Z,10.01
2017-11-08T10:18:47.062Z,10.19
2017-11-08T10:19:48.460Z,10.03
2017-11-08T10:20:49.881Z,10.04
2017-11-08T10:21:51.292Z,9.96
2017-11-08T10:22:52.706Z,10.09
2017-11-08T10:23:54.124Z,9.99
2017-11-08T10:24:55.538Z,9.99
2017-11-08T10:25:56.923Z,10.09
2017-11-08T10:26:58.340Z,10.09
2017-11-08T10:27:59.796Z,10.12
2017-11-08T10:29:01.210Z,10.10
2017-11-08T10:30:02.639Z,10.19
2017-11-08T10:31:04.067Z,10.12
2017-11-08T10:32:05.477Z,10.09
2017-11-08T10:33:06.898Z,10.18
2017-11-08T10:34:08.324Z,9.83
2017-11-08T10:35:09.733Z,9.85
2017-11-08T10:36:11.158Z,9.75
2017-11-08T10:37:12.578Z,9.86
2017-11-08T10:38:14.117Z,9.94
2017-11-08T10:39:15.543Z,9.94
2017-11-08T10:40:16.964Z,9.99
2017-11-08T10:41:18.375Z,9.85
2017-11-08T10:42:19.755Z,9.82
2017-11-08T10:43:21.171Z,9.88
2017-11-08T10:44:22.584Z,9.76
2017-11-08T10:45:23.999Z,9.76
2017-11-08T10:46:25.421Z,9.73
2017-11-08T10:47:26.864Z,9.97
2017-11-08T10:48:28.280Z,10.06
2017-11-08T10:49:29.699Z,10.07
2017-11-08T10:50:31.128Z,9.94
2017-11-08T10:51:32.551Z,9.99
2017-11-08T10:52:33.972Z,10.00
2017-11-08T10:53:35.390Z,10.01
2017-11-08T10:54:36.808Z,10.07
2017-11-08T10:55:38.224Z,10.10
2017-11-08T10:56:39.640Z,10.17
2017-11-08T10:57:41.056Z,10.33
2017-11-08T10:58:42.477Z,10.19
2017-11-08T10:59:43.891Z,10.37
2017-11-08T11:00:45.325Z,10.36
2017-11-08T11:01:46.752Z,10.30
2017-11-08T11:02:48.172Z,10.24
2017-11-08T11:03:49.593Z,10.22
2017-11-08T11:04:51.022Z,10.21
2017-11-08T11:05:52.435Z,10.30
2017-11-08T11:06:53.859Z,10.28
2017-11-08T11:07:55.277Z,10.33
2017-11-08T11:08:56.710Z,10.44
2017-11-08T11:09:58.128Z,10.52
2017-11-08T11:10:59.552Z,10.39
2017-11-08T11:12:00.973Z,10.36
2017-11-08T11:13:02.397Z,10.21
2017-11-08T11:14:03.817Z,10.17
2017-11-08T11:15:05.244Z,9.97
2017-11-08T11:16:06.652Z,10.03
2017-11-08T11:17:08.073Z,10.24
2017-11-08T11:18:09.498Z,10.25
2017-11-08T11:19:10.913Z,10.28
2017-11-08T11:20:12.333Z,10.28
2017-11-08T11:21:13.748Z,9.99
2017-11-08T11:22:15.173Z,9.81
2017-11-08T11:23:16.591Z,9.99
2017-11-08T11:24:18.004Z,10.09
2017-11-08T11:25:19.428Z,10.09
2017-11-08T11:26:20.846Z,10.15
2017-11-08T11:27:22.278Z,10.12
2017-11-08T11:28:23.655Z,10.14
2017-11-08T11:29:25.076Z,10.34
2017-11-08T11:30:26.600Z,10.34
2017-11-08T11:31:28.016Z,10.39
2017-11-08T11:32:29.444Z,10.24
2017-11-08T11:33:30.879Z,10.32
2017-11-08T11:34:32.301Z,10.34
2017-11-08T11:35:33.731Z,10.42
2017-11-08T11:36:35.146Z,10.32
2017-11-08T11:37:36.562Z,10.19
2017-11-08T11:38:37.981Z,10.34
2017-11-08T11:39:39.413Z,10.22
2017-11-08T11:40:40.838Z,10.30
2017-11-08T11:41:42.261Z,10.32
2017-11-08T11:42:43.754Z,10.30
2017-11-08T11:43:45.173Z,10.42
2017-11-08T11:44:46.589Z,10.25
2017-11-08T11:45:48.015Z,10.24
2017-11-08T11:46:49.443Z,10.28
2017-11-08T11:47:50.945Z,10.25
2017-11-08T11:48:52.368Z,10.46
2017-11-08T11:49:53.795Z,10.39
2017-11-08T11:50:55.277Z,10.53
2017-11-08T11:51:56.694Z,10.53
2017-11-08T11:52:58.115Z,10.60
2017-11-08T11:53:59.531Z,10.55
2017-11-08T11:55:00.957Z,10.52
2017-11-08T11:56:02.384Z,10.65
2017-11-08T11:57:03.812Z,10.66
2017-11-08T11:58:05.239Z,10.63
2017-11-08T11:59:06.649Z,10.55
2017-11-08T12:00:08.064Z,10.62
2017-11-08T12:01:09.479Z,10.63
2017-11-08T12:02:10.916Z,10.59
2017-11-08T12:03:12.332Z,10.51
2017-11-08T12:04:13.757Z,10.40
2017-11-08T12:05:15.183Z,10.52
2017-11-08T12:06:16.601Z,10.60
2017-11-08T12:07:18.007Z,10.46
2017-11-08T12:08:19.428Z,10.34
2017-11-08T12:09:20.875Z,10.52
2017-11-08T12:10:22.294Z,10.44
2017-11-08T12:11:23.722Z,10.55
2017-11-08T12:12:25.158Z,10.60
2017-11-08T12:13:26.582Z,10.55
2017-11-08T12:14:28.003Z,10.68
2017-11-08T12:15:29.421Z,10.68
2017-11-08T12:16:30.838Z,10.59
2017-11-08T12:17:32.264Z,10.58
2017-11-08T12:18:33.688Z,10.44
2017-11-08T12:19:35.111Z,10.37
2017-11-08T12:20:36.543Z,10.47
2017-11-08T12:21:37.963Z,10.42
2017-11-08T12:22:39.392Z,10.60
2017-11-08T12:23:40.816Z,10.37
2017-11-08T12:24:42.237Z,10.39
2017-11-08T12:25:43.662Z,10.62
2017-11-08T12:26:45.081Z,10.71
2017-11-08T12:27:46.505Z,10.53
2017-11-08T12:28:47.925Z,10.43
2017-11-08T12:29:49.337Z,10.52
2017-11-08T12:30:50.766Z,10.56
2017-11-08T12:31:52.188Z,10.52
2017-11-08T12:32:53.600Z,10.44
2017-11-08T12:33:55.014Z,10.51
2017-11-08T12:34:56.430Z,10.65
2017-11-08T12:35:57.853Z,10.44
2017-11-08T12:36:59.269Z,10.60
2017-11-08T12:38:00.699Z,10.56
2017-11-08T12:39:02.194Z,10.70
2017-11-08T12:40:03.617Z,10.68
2017-11-08T12:41:05.027Z,10.62
2017-11-08T12:42:06.448Z,10.55
2017-11-08T12:43:07.886Z,10.55
2017-11-08T12:44:09.301Z,10.33
2017-11-08T12:45:10.729Z,10.55
2017-11-08T12:46:12.141Z,10.66
2017-11-08T12:47:13.559Z,10.66
2017-11-08T12:48:14.976Z,10.66
2017-11-08T12:49:16.394Z,10.77
2017-11-08T12:50:17.820Z,10.66
2017-11-08T12:51:19.231Z,10.77
2017-11-08T12:52:20.653Z,10.77
2017-11-08T12:53:22.077Z,10.80
2017-11-08T12:54:23.491Z,10.68
2017-11-08T12:55:24.910Z,10.71
2017-11-08T12:56:26.420Z,10.73
2017-11-08T12:57:27.846Z,10.68
2017-11-08T12:58:29.260Z,10.78
2017-11-08T12:59:30.676Z,10.76
2017-11-08T13:00:32.094Z,10.70
2017-11-08T13:01:33.513Z,10.65
2017-11-08T13:02:34.945Z,10.78
2017-11-08T13:03:36.379Z,10.78
2017-11-08T13:04:37.799Z,10.71
2017-11-08T13:05:39.222Z,10.81
2017-11-08T13:06:40.638Z,10.98
2017-11-08T13:07:42.057Z,10.95
2017-11-08T13:08:43.491Z,10.78
2017-11-08T13:09:44.902Z,10.62
2017-11-08T13:10:46.321Z,10.66
2017-11-08T13:11:47.759Z,10.66
2017-11-08T13:12:49.193Z,10.73
2017-11-08T13:13:50.596Z,10.73
2017-11-08T13:14:52.017Z,10.91
2017-11-08T13:15:53.445Z,11.01
2017-11-08T13:16:54.867Z,11.07
2017-11-08T13:17:56.294Z,11.06
2017-11-08T13:18:57.712Z,11.02
2017-11-08T13:19:59.133Z,10.99
2017-11-08T13:21:00.545Z,11.01
2017-11-08T13:22:01.991Z,11.06
2017-11-08T13:23:03.456Z,11.10
2017-11-08T13:24:04.886Z,11.13
2017-11-08T13:25:06.325Z,11.10
2017-11-08T13:26:07.721Z,10.78
2017-11-08T13:27:09.144Z,10.71
2017-11-08T13:28:10.559Z,10.84
2017-11-08T13:29:11.989Z,10.80
2017-11-08T13:30:13.407Z,10.86
2017-11-08T13:31:14.826Z,10.88